createdAt,value
2018-10-17T00:01:22.764Z,14.59
2018-10-17T00:03:53.508Z,14.58
2018-10-17T00:06:24.241Z,14.57
2018-10-17T00:08:54.982Z,14.55
2018-10-17T00:11:25.927Z,14.49
2018-10-17T00:13:56.712Z,14.45
2018-10-17T00:16:27.473Z,14.44
2018-10-17T00:18:58.449Z,14.43
2018-10-17T00:21:29.271Z,14.39
2018-10-17T00:24:00.105Z,14.38
2018-10-17T00:26:31.083Z,14.40
2018-10-17T00:29:02.348Z,14.42
2018-10-17T00:31:39.624Z,14.45
2018-10-17T00:34:10.941Z,14.46
2018-10-17T00:36:42.278Z,14.45
2018-10-17T00:39:13.073Z,14.42
2018-10-17T00:41:43.913Z,14.40
2018-10-17T00:44:14.875Z,14.38
2018-10-17T00:46:45.646Z,14.40
2018-10-17T00:49:16.409Z,14.40
2018-10-17T00:51:47.095Z,14.41
2018-10-17T00:54:17.883Z,14.44
2018-10-17T00:56:48.657Z,14.49
2018-10-17T00:59:19.386Z,14.55
2018-10-17T01:01:50.150Z,14.53
2018-10-17T01:04:23.368Z,14.53
2018-10-17T01:06:54.553Z,14.49
2018-10-17T01:09:25.210Z,14.47
2018-10-17T01:11:56.236Z,14.42
2018-10-17T01:14:27.129Z,14.31
2018-10-17T01:16:57.797Z,14.26
2018-10-17T01:19:28.781Z,14.25
2018-10-17T01:21:59.552Z,14.22
2018-10-17T01:24:30.342Z,14.22
2018-10-17T01:27:01.113Z,14.19
2018-10-17T01:29:32.801Z,14.15
2018-10-17T01:32:03.513Z,14.11
2018-10-17T01:34:34.200Z,14.08
2018-10-17T01:37:05.028Z,14.07
2018-10-17T01:39:35.824Z,14.05
2018-10-17T01:42:07.235Z,14.03
2018-10-17T01:44:37.864Z,14.03
2018-10-17T01:47:08.652Z,14.01
2018-10-17T01:49:39.322Z,13.96
2018-10-17T01:52:10.198Z,13.92
2018-10-17T01:54:40.924Z,13.90
2018-10-17T01:57:11.763Z,13.84
2018-10-17T01:59:42.410Z,13.82
2018-10-17T02:02:13.132Z,13.84
2018-10-17T02:04:44.573Z,13.84
2018-10-17T02:07:15.436Z,13.78
2018-10-17T02:09:46.915Z,13.71
2018-10-17T02:12:17.827Z,13.65
2018-10-17T02:14:49.360Z,13.57
2018-10-17T02:17:20.416Z,13.56
2018-10-17T02:19:51.248Z,13.55
2018-10-17T02:22:22.475Z,13.53
2018-10-17T02:24:54.291Z,13.56
2018-10-17T02:27:25.093Z,13.57
2018-10-17T02:29:56.358Z,13.65
2018-10-17T02:32:27.260Z,13.62
2018-10-17T02:35:03.784Z,13.63
2018-10-17T02:37:34.732Z,13.60
2018-10-17T02:40:05.802Z,13.61
2018-10-17T02:42:36.517Z,13.60
2018-10-17T02:45:08.278Z,13.61
2018-10-17T02:47:39.150Z,13.57
2018-10-17T02:50:11.944Z,13.57
2018-10-17T02:52:43.512Z,13.58
2018-10-17T02:55:14.565Z,13.59
2018-10-17T02:57:45.447Z,13.66
2018-10-17T03:00:16.243Z,13.71
2018-10-17T03:02:46.929Z,13.74
2018-10-17T03:05:18.688Z,13.78
2018-10-17T03:07:49.357Z,13.81
2018-10-17T03:10:19.963Z,13.87
2018-10-17T03:12:50.548Z,13.85
2018-10-17T03:15:21.187Z,13.82
2018-10-17T03:17:52.023Z,13.78
2018-10-17T03:20:22.899Z,13.75
2018-10-17T03:22:53.780Z,13.73
2018-10-17T03:25:24.459Z,13.68
2018-10-17T03:27:55.343Z,13.63
2018-10-17T03:30:26.424Z,13.56
2018-10-17T03:32:57.416Z,13.49
2018-10-17T03:35:28.230Z,13.46
2018-10-17T03:37:59.899Z,13.46
2018-10-17T03:40:30.673Z,13.45
2018-10-17T03:43:01.845Z,13.45
2018-10-17T03:45:32.885Z,13.43
2018-10-17T03:48:03.603Z,13.43
2018-10-17T03:50:34.319Z,13.39
2018-10-17T03:53:05.250Z,13.40
2018-10-17T03:55:36.168Z,13.40
2018-10-17T03:58:07.476Z,13.41
2018-10-17T04:00:38.141Z,13.41
2018-10-17T04:03:09.029Z,13.42
2018-10-17T04:05:40.463Z,13.41
2018-10-17T04:08:11.229Z,13.41
2018-10-17T04:10:42.255Z,13.37
2018-10-17T04:13:13.078Z,13.35
2018-10-17T04:15:50.453Z,13.33
2018-10-17T04:18:21.221Z,13.31
2018-10-17T04:20:52.240Z,13.24
2018-10-17T04:23:23.265Z,13.19
2018-10-17T04:25:54.413Z,13.16
2018-10-17T04:28:28.150Z,13.12
2018-10-17T04:30:59.377Z,13.11
2018-10-17T04:33:30.495Z,13.08
2018-10-17T04:36:02.421Z,13.13
2018-10-17T04:38:34.052Z,13.09
2018-10-17T04:41:06.319Z,13.02
2018-10-17T04:43:37.289Z,12.89
2018-10-17T04:46:08.173Z,12.80
2018-10-17T04:48:39.011Z,12.72
2018-10-17T04:51:12.549Z,12.68
2018-10-17T04:53:43.731Z,12.67
2018-10-17T04:56:14.643Z,12.66
2018-10-17T04:58:46.366Z,12.63
2018-10-17T05:01:17.343Z,12.64
2018-10-17T05:03:48.597Z,12.63
2018-10-17T05:06:20.139Z,12.66
2018-10-17T05:08:51.241Z,12.65
2018-10-17T05:11:22.392Z,12.67
2018-10-17T05:13:56.285Z,12.68
2018-10-17T05:16:27.056Z,12.73
2018-10-17T05:18:58.071Z,12.78
2018-10-17T05:21:29.794Z,12.87
2018-10-17T05:24:00.759Z,12.96
2018-10-17T05:26:31.993Z,13.05
2018-10-17T05:29:02.910Z,13.08
2018-10-17T05:31:33.796Z,13.10
2018-10-17T05:34:04.635Z,13.13
2018-10-17T05:36:35.388Z,13.15
2018-10-17T05:39:08.354Z,13.17
2018-10-17T05:41:39.321Z,13.19
2018-10-17T05:44:10.051Z,13.19
2018-10-17T05:46:40.863Z,13.18
2018-10-17T05:49:11.639Z,13.18
2018-10-17T05:51:43.101Z,13.19
2018-10-17T05:54:14.078Z,13.26
2018-10-17T05:56:45.638Z,13.37
2018-10-17T05:59:16.719Z,13.48
2018-10-17T06:01:47.856Z,13.62
2018-10-17T06:04:18.654Z,13.77
2018-10-17T06:06:50.627Z,13.91
2018-10-17T06:09:22.274Z,13.99
2018-10-17T06:11:53.647Z,14.01
2018-10-17T06:14:24.634Z,13.99
2018-10-17T06:16:55.595Z,14.05
2018-10-17T06:19:26.420Z,14.09
2018-10-17T06:21:57.187Z,14.18
2018-10-17T06:24:28.243Z,14.24
2018-10-17T06:26:59.211Z,14.29
2018-10-17T06:29:30.962Z,14.30
2018-10-17T06:32:02.172Z,14.32
2018-10-17T06:34:36.382Z,14.38
2018-10-17T06:37:11.172Z,14.39
2018-10-17T06:39:42.233Z,14.43
2018-10-17T06:42:13.555Z,14.51
2018-10-17T06:44:45.229Z,14.58
2018-10-17T06:47:16.645Z,14.77
2018-10-17T06:49:47.816Z,14.92
2018-10-17T06:52:19.016Z,15.07
2018-10-17T06:54:50.542Z,15.21
2018-10-17T06:57:21.918Z,15.33
2018-10-17T06:59:53.131Z,15.40
2018-10-17T07:02:23.995Z,15.49
2018-10-17T07:04:55.200Z,15.50
2018-10-17T07:07:25.994Z,15.62
2018-10-17T07:09:56.977Z,15.71
2018-10-17T07:12:27.721Z,15.91
2018-10-17T07:14:58.676Z,16.05
2018-10-17T07:17:29.590Z,16.23
2018-10-17T07:20:00.533Z,16.37
2018-10-17T07:22:31.449Z,16.48
2018-10-17T07:25:02.507Z,16.68
2018-10-17T07:27:33.679Z,16.89
2018-10-17T07:30:04.526Z,17.10
2018-10-17T07:32:35.684Z,17.29
2018-10-17T07:35:07.473Z,17.43
2018-10-17T07:37:38.435Z,17.61
2018-10-17T07:40:09.986Z,17.70
2018-10-17T07:42:40.973Z,17.98
2018-10-17T07:45:11.995Z,18.14
2018-10-17T07:47:43.115Z,18.43
2018-10-17T07:50:14.186Z,18.56
2018-10-17T07:52:45.229Z,18.69
2018-10-17T07:55:16.099Z,18.78
2018-10-17T07:57:47.205Z,18.82
2018-10-17T08:00:19.015Z,19.15
2018-10-17T08:02:49.782Z,19.27
2018-10-17T08:05:23.005Z,19.60
2018-10-17T08:07:54.610Z,19.94
2018-10-17T08:14:01.294Z,20.50
2018-10-17T08:16:32.137Z,20.67
2018-10-17T08:19:03.062Z,21.09
2018-10-17T08:25:11.435Z,22.14
2018-10-17T08:27:43.669Z,23.07
2018-10-17T08:30:14.963Z,24.55
2018-10-17T08:32:46.878Z,25.53
2018-10-17T08:35:17.947Z,26.08
2018-10-17T08:37:49.240Z,26.65
2018-10-17T08:40:19.867Z,26.57
2018-10-17T08:42:50.880Z,26.88
2018-10-17T08:45:28.377Z,25.95
2018-10-17T08:47:59.431Z,25.17
2018-10-17T08:50:30.375Z,24.37
2018-10-17T08:53:01.328Z,24.11
2018-10-17T08:55:32.190Z,24.12
2018-10-17T08:58:03.086Z,24.16
2018-10-17T09:00:33.886Z,24.11
2018-10-17T09:03:04.927Z,24.07
2018-10-17T09:05:35.769Z,23.92
2018-10-17T09:08:07.102Z,24.03
2018-10-17T09:10:38.721Z,24.13
2018-10-17T09:13:09.594Z,24.20
2018-10-17T09:15:41.216Z,23.92
2018-10-17T09:18:12.271Z,23.80
2018-10-17T09:20:45.099Z,23.94
2018-10-17T09:23:15.949Z,24.37
2018-10-17T09:25:47.990Z,24.64
2018-10-17T09:28:19.151Z,25.10
2018-10-17T09:30:50.882Z,25.29
2018-10-17T09:33:22.236Z,24.59
2018-10-17T09:35:57.655Z,25.03
2018-10-17T09:38:28.504Z,25.40
2018-10-17T09:40:59.399Z,25.40
2018-10-17T09:43:31.012Z,25.20
2018-10-17T09:46:02.159Z,24.74
2018-10-17T09:48:33.471Z,23.93
2018-10-17T09:51:04.235Z,23.61
2018-10-17T09:53:35.160Z,23.42
2018-10-17T09:56:06.202Z,23.20
2018-10-17T09:58:37.421Z,22.98
2018-10-17T10:02:17.864Z,22.82
2018-10-17T10:04:48.663Z,22.48
2018-10-17T10:07:19.898Z,22.26
2018-10-17T10:09:51.049Z,22.17
2018-10-17T10:12:22.303Z,22.15
2018-10-17T10:14:53.432Z,22.08
2018-10-17T10:17:24.289Z,22.07
2018-10-17T10:19:55.184Z,22.00
2018-10-17T10:22:26.040Z,21.99
2018-10-17T10:24:57.123Z,21.95
2018-10-17T10:27:28.659Z,21.91
2018-10-17T10:29:59.445Z,21.94
2018-10-17T10:32:31.593Z,21.92
2018-10-17T10:35:04.009Z,21.92
2018-10-17T10:37:36.251Z,21.84
2018-10-17T10:40:09.463Z,21.78
2018-10-17T10:42:41.726Z,21.61
2018-10-17T10:45:12.786Z,21.38
2018-10-17T10:47:45.155Z,21.32
2018-10-17T10:50:16.003Z,21.34
2018-10-17T10:52:46.801Z,21.45
2018-10-17T10:55:17.635Z,21.48
2018-10-17T10:57:48.682Z,21.51
2018-10-17T11:00:19.976Z,21.54
2018-10-17T11:02:50.950Z,21.49
2018-10-17T11:05:22.054Z,21.43
2018-10-17T11:07:53.391Z,21.49
2018-10-17T11:10:24.331Z,21.69
2018-10-17T11:12:55.323Z,21.55
2018-10-17T11:15:26.517Z,21.84
2018-10-17T11:17:57.450Z,21.83
2018-10-17T11:20:28.487Z,22.03
2018-10-17T11:22:59.533Z,22.17
2018-10-17T11:25:30.754Z,22.26
2018-10-17T11:28:02.445Z,22.45
2018-10-17T11:30:33.701Z,22.55
2018-10-17T11:33:05.250Z,22.62
2018-10-17T11:35:36.119Z,22.71
2018-10-17T11:38:07.178Z,22.34
2018-10-17T11:40:38.187Z,22.53
2018-10-17T11:43:09.174Z,22.02
2018-10-17T11:45:40.173Z,22.32
2018-10-17T11:48:13.259Z,22.78
2018-10-17T11:50:44.228Z,23.07
2018-10-17T11:53:15.213Z,23.40
2018-10-17T11:55:46.738Z,23.67
2018-10-17T11:58:18.146Z,23.93
2018-10-17T12:00:49.342Z,23.94
2018-10-17T12:03:20.623Z,24.05
2018-10-17T12:05:53.053Z,24.20
2018-10-17T12:08:24.112Z,24.27
2018-10-17T12:10:56.188Z,24.44
2018-10-17T12:13:27.502Z,24.61
2018-10-17T12:15:59.019Z,24.83
2018-10-17T12:18:30.037Z,25.16
2018-10-17T12:21:01.212Z,24.97
2018-10-17T12:23:32.391Z,25.13
2018-10-17T12:26:03.356Z,25.29
2018-10-17T12:28:34.691Z,25.24
2018-10-17T12:31:06.216Z,25.38
2018-10-17T12:33:37.627Z,25.35
2018-10-17T12:36:08.873Z,25.37
2018-10-17T12:38:39.850Z,25.29
2018-10-17T12:41:11.607Z,25.26
2018-10-17T12:43:43.471Z,25.22
2018-10-17T12:46:14.642Z,25.27
2018-10-17T12:48:46.051Z,25.42
2018-10-17T12:51:17.228Z,25.50
2018-10-17T12:53:48.544Z,25.74
2018-10-17T12:56:19.762Z,25.73
2018-10-17T12:58:52.844Z,25.86
2018-10-17T13:01:25.039Z,26.03
2018-10-17T13:03:57.966Z,26.22
2018-10-17T13:06:29.872Z,26.66
2018-10-17T13:09:02.366Z,26.98
2018-10-17T13:11:35.033Z,27.34
2018-10-17T13:14:07.752Z,27.49
2018-10-17T13:16:41.082Z,27.01
2018-10-17T13:19:14.104Z,27.94
2018-10-17T13:21:47.718Z,29.04
2018-10-17T13:24:20.437Z,29.75
2018-10-17T13:26:53.003Z,29.77
2018-10-17T13:29:25.729Z,29.63
2018-10-17T13:31:58.531Z,29.32
2018-10-17T13:34:31.435Z,28.96
2018-10-17T13:37:06.260Z,29.23
2018-10-17T13:39:38.387Z,29.54
2018-10-17T13:42:10.933Z,29.81
2018-10-17T13:44:42.997Z,29.05
2018-10-17T13:47:15.615Z,29.21
2018-10-17T13:49:48.353Z,28.03
2018-10-17T13:52:20.526Z,27.98
2018-10-17T13:54:53.344Z,28.13
2018-10-17T13:57:26.430Z,27.62
2018-10-17T13:59:59.011Z,27.22
2018-10-17T14:02:31.461Z,26.82
2018-10-17T14:05:03.407Z,26.05
2018-10-17T14:07:36.141Z,25.81
2018-10-17T14:10:09.221Z,25.73
2018-10-17T14:12:40.703Z,25.83
2018-10-17T14:15:12.704Z,26.36
2018-10-17T14:17:43.733Z,26.91
2018-10-17T14:20:14.742Z,26.94
2018-10-17T14:22:45.990Z,27.02
2018-10-17T14:25:17.239Z,26.91
2018-10-17T14:27:47.946Z,26.43
2018-10-17T14:30:18.925Z,26.21
2018-10-17T14:32:49.754Z,26.19
2018-10-17T14:35:21.603Z,26.16
2018-10-17T14:37:52.735Z,26.13
2018-10-17T14:40:23.654Z,25.97
2018-10-17T14:42:54.643Z,25.96
2018-10-17T14:45:26.211Z,25.96
2018-10-17T14:47:57.445Z,25.96
2018-10-17T14:50:30.366Z,25.82
2018-10-17T14:53:01.818Z,25.87
2018-10-17T14:55:33.023Z,25.92
2018-10-17T14:58:04.373Z,25.91
2018-10-17T15:00:37.438Z,25.78
2018-10-17T15:03:10.676Z,25.74
2018-10-17T15:05:43.262Z,25.47
2018-10-17T15:08:16.773Z,25.15
2018-10-17T15:10:49.751Z,24.96
2018-10-17T15:13:22.205Z,24.77
2018-10-17T15:15:55.229Z,24.59
2018-10-17T15:18:27.676Z,24.44
2018-10-17T15:20:59.193Z,24.38
2018-10-17T15:23:30.225Z,24.22
2018-10-17T15:26:01.630Z,24.03
2018-10-17T15:28:32.873Z,23.89
2018-10-17T15:31:04.730Z,23.74
2018-10-17T15:33:35.720Z,23.58
2018-10-17T15:36:06.890Z,23.44
2018-10-17T15:38:38.112Z,23.31
2018-10-17T15:41:11.213Z,23.22
2018-10-17T15:43:43.703Z,23.14
2018-10-17T15:46:15.046Z,23.07
2018-10-17T15:48:49.478Z,22.98
2018-10-17T15:51:21.320Z,22.82
2018-10-17T15:53:54.770Z,22.64
2018-10-17T15:56:26.664Z,22.46
2018-10-17T16:02:40.019Z,22.11
2018-10-17T16:05:20.652Z,22.00
2018-10-17T16:07:57.009Z,21.87
2018-10-17T16:14:05.180Z,21.56
2018-10-17T16:16:40.989Z,21.43
2018-10-17T16:21:12.101Z,21.31
2018-10-17T16:23:42.969Z,21.09
2018-10-17T16:26:14.175Z,20.99
2018-10-17T16:28:45.118Z,20.91
2018-10-17T16:31:16.017Z,20.86
2018-10-17T16:33:47.241Z,20.80
2018-10-17T16:36:18.058Z,20.77
2018-10-17T16:38:49.613Z,20.75
2018-10-17T16:41:21.635Z,20.70
2018-10-17T16:43:52.734Z,20.64
2018-10-17T16:46:23.685Z,20.53
2018-10-17T16:48:54.697Z,20.41
2018-10-17T16:51:25.427Z,20.27
2018-10-17T16:53:56.440Z,20.16
2018-10-17T16:56:27.274Z,20.01
2018-10-17T16:58:58.283Z,19.88
2018-10-17T17:01:29.558Z,19.77
2018-10-17T17:04:01.624Z,19.70
2018-10-17T17:06:32.868Z,19.61
2018-10-17T17:09:04.293Z,19.55
2018-10-17T17:11:35.429Z,19.48
2018-10-17T17:14:07.238Z,19.42
2018-10-17T17:16:38.401Z,19.28
2018-10-17T17:19:09.368Z,19.17
2018-10-17T17:21:40.438Z,19.05
2018-10-17T17:24:12.120Z,18.97
2018-10-17T17:26:43.064Z,18.92
2018-10-17T17:29:13.837Z,18.87
2018-10-17T17:31:45.377Z,18.82
2018-10-17T17:34:16.443Z,18.77
2018-10-17T17:36:47.353Z,18.72
2018-10-17T17:39:18.440Z,18.76
2018-10-17T17:41:49.410Z,18.71
2018-10-17T17:44:20.376Z,18.67
2018-10-17T17:46:51.553Z,18.61
2018-10-17T17:49:22.519Z,18.58
2018-10-17T17:51:54.157Z,18.58
2018-10-17T17:54:26.660Z,18.57
2018-10-17T17:56:57.754Z,18.54
2018-10-17T17:59:29.175Z,18.49
2018-10-17T18:02:00.441Z,18.47
2018-10-17T18:04:31.412Z,18.42
2018-10-17T18:07:03.185Z,18.40
2018-10-17T18:09:34.525Z,18.37
2018-10-17T18:12:06.073Z,18.31
2018-10-17T18:14:38.218Z,18.25
2018-10-17T18:17:11.103Z,18.20
2018-10-17T18:19:42.870Z,18.16
2018-10-17T18:22:14.296Z,18.15
2018-10-17T18:24:45.865Z,18.12
2018-10-17T18:27:17.362Z,18.10
2018-10-17T18:29:49.853Z,18.08
2018-10-17T18:32:23.958Z,18.09
2018-10-17T18:34:56.000Z,18.10
2018-10-17T18:37:28.261Z,18.11
2018-10-17T18:40:01.374Z,18.06
2018-10-17T18:42:38.321Z,18.02
2018-10-17T18:45:10.436Z,17.98
2018-10-17T18:47:41.880Z,17.91
2018-10-17T18:50:17.425Z,17.86
2018-10-17T18:52:50.826Z,17.80
2018-10-17T18:55:28.423Z,17.76
2018-10-17T18:57:59.779Z,17.74
2018-10-17T19:00:31.168Z,17.76
2018-10-17T19:03:04.689Z,17.78
2018-10-17T19:05:36.222Z,17.79
2018-10-17T19:08:08.671Z,17.78
2018-10-17T19:10:39.751Z,17.76
2018-10-17T19:13:11.224Z,17.73
2018-10-17T19:15:42.560Z,17.71
2018-10-17T19:18:14.833Z,17.73
2018-10-17T19:20:46.372Z,17.70
2018-10-17T19:23:18.807Z,17.67
2018-10-17T19:25:50.244Z,17.68
2018-10-17T19:28:21.691Z,17.68
2018-10-17T19:30:57.813Z,17.66
2018-10-17T19:33:32.371Z,17.64
2018-10-17T19:36:05.165Z,17.61
2018-10-17T19:38:39.916Z,17.61
2018-10-17T19:41:14.047Z,17.59
2018-10-17T19:43:47.194Z,17.60
2018-10-17T19:46:20.623Z,17.62
2018-10-17T19:48:56.852Z,17.62
2018-10-17T19:51:28.554Z,17.64
2018-10-17T19:53:59.619Z,17.66
2018-10-17T19:56:30.862Z,17.69
2018-10-17T19:59:02.825Z,17.64
2018-10-17T20:01:35.178Z,17.68
2018-10-17T20:04:08.164Z,17.76
2018-10-17T20:06:39.824Z,17.85
2018-10-17T20:09:12.591Z,17.94
2018-10-17T20:11:45.785Z,18.00
2018-10-17T20:14:17.216Z,18.06
2018-10-17T20:16:49.500Z,18.14
2018-10-17T20:19:23.542Z,18.16
2018-10-17T20:21:54.780Z,18.15
2018-10-17T20:24:27.481Z,18.16
2018-10-17T20:26:59.076Z,18.18
2018-10-17T20:29:30.980Z,18.13
2018-10-17T20:32:02.729Z,18.02
2018-10-17T20:34:34.405Z,17.91
2018-10-17T20:37:06.635Z,17.82
2018-10-17T20:39:40.814Z,17.77
2018-10-17T20:42:15.384Z,17.73
2018-10-17T20:44:48.489Z,17.70
2018-10-17T20:47:19.749Z,17.66
2018-10-17T20:49:52.253Z,17.60
2018-10-17T20:52:24.048Z,17.60
2018-10-17T20:54:56.271Z,17.55
2018-10-17T20:57:27.256Z,17.49
2018-10-17T20:59:59.898Z,17.46
2018-10-17T21:02:31.982Z,17.45
2018-10-17T21:05:03.300Z,17.40
2018-10-17T21:07:34.195Z,17.36
2018-10-17T21:10:05.780Z,17.32
2018-10-17T21:12:37.084Z,17.26
2018-10-17T21:15:09.268Z,17.22
2018-10-17T21:17:42.247Z,17.20
2018-10-17T21:20:14.164Z,17.17
2018-10-17T21:22:45.873Z,17.11
2018-10-17T21:25:17.984Z,17.05
2018-10-17T21:27:49.804Z,16.96
2018-10-17T21:30:22.739Z,16.87
2018-10-17T21:32:53.652Z,16.78
2018-10-17T21:35:26.588Z,16.70
2018-10-17T21:37:57.558Z,16.63
2018-10-17T21:40:30.247Z,16.56
2018-10-17T21:43:01.324Z,16.50
2018-10-17T21:45:32.459Z,16.42
2018-10-17T21:48:03.598Z,16.34
2018-10-17T21:50:34.606Z,16.30
2018-10-17T21:53:05.704Z,16.25
2018-10-17T21:55:36.766Z,16.22
2018-10-17T21:58:08.861Z,16.19
2018-10-17T22:00:40.450Z,16.17
2018-10-17T22:03:11.368Z,16.18
2018-10-17T22:05:42.092Z,16.16
2018-10-17T22:08:12.927Z,16.13
2018-10-17T22:10:43.868Z,16.13
2018-10-17T22:13:14.970Z,16.09
2018-10-17T22:15:45.942Z,16.05
2018-10-17T22:18:16.653Z,16.02
2018-10-17T22:20:47.497Z,15.98
2018-10-17T22:23:18.465Z,15.90
2018-10-17T22:25:49.523Z,15.85
2018-10-17T22:28:20.532Z,15.78
2018-10-17T22:30:51.643Z,15.76
2018-10-17T22:33:22.879Z,15.72
2018-10-17T22:35:53.585Z,15.70
2018-10-17T22:38:24.294Z,15.69
2018-10-17T22:40:55.165Z,15.68
2018-10-17T22:43:26.049Z,15.68
2018-10-17T22:45:57.982Z,15.68
2018-10-17T22:48:28.765Z,15.65
2018-10-17T22:50:59.821Z,15.65
2018-10-17T22:53:31.023Z,15.70
2018-10-17T22:56:02.069Z,15.76
2018-10-17T22:58:33.443Z,15.81
2018-10-17T23:01:04.397Z,15.83
2018-10-17T23:03:35.852Z,15.83
2018-10-17T23:06:06.733Z,15.84
2018-10-17T23:08:37.752Z,15.84
2018-10-17T23:11:08.933Z,15.83
2018-10-17T23:13:39.889Z,15.82
2018-10-17T23:16:10.977Z,15.76
2018-10-17T23:18:43.966Z,15.72
2018-10-17T23:21:15.151Z,15.68
2018-10-17T23:23:52.780Z,15.61
2018-10-17T23:26:23.693Z,15.55
2018-10-17T23:28:55.021Z,15.50
2018-10-17T23:31:25.903Z,15.42
2018-10-17T23:33:56.506Z,15.40
2018-10-17T23:36:27.014Z,15.35
2018-10-17T23:38:57.720Z,15.33
2018-10-17T23:41:28.504Z,15.33
2018-10-17T23:43:59.445Z,15.35
2018-10-17T23:46:30.179Z,15.36
2018-10-17T23:49:01.109Z,15.38
2018-10-17T23:51:31.820Z,15.36
2018-10-17T23:54:02.811Z,15.35
2018-10-17T23:56:33.721Z,15.36
2018-10-17T23:59:05.080Z,15.36
